createdAt,value
2022-12-23T00:00:40.608Z,14.30
2022-12-23T00:01:40.760Z,14.60
2022-12-23T00:02:40.778Z,14.60
2022-12-23T00:03:40.742Z,14.60
2022-12-23T00:04:40.606Z,15.20
2022-12-23T00:05:40.574Z,15.30
2022-12-23T00:06:40.548Z,15.00
2022-12-23T00:07:40.548Z,15.80
2022-12-23T00:08:40.520Z,14.80
2022-12-23T00:09:40.505Z,16.20
2022-12-23T00:10:40.703Z,15.30
2022-12-23T00:11:40.480Z,15.20
2022-12-23T00:12:40.474Z,16.60
2022-12-23T00:13:40.461Z,16.60
2022-12-23T00:14:40.450Z,16.00
2022-12-23T00:15:40.435Z,15.80
2022-12-23T00:16:40.490Z,16.70
2022-12-23T00:17:40.413Z,16.00
2022-12-23T00:18:40.424Z,17.00
2022-12-23T00:19:40.392Z,17.20
2022-12-23T00:20:40.383Z,16.20
2022-12-23T00:21:40.371Z,16.80
2022-12-23T00:22:40.395Z,17.70
2022-12-23T00:23:40.367Z,17.40
2022-12-23T00:24:40.350Z,17.30
2022-12-23T00:25:40.372Z,17.50
2022-12-23T00:26:40.340Z,17.30
2022-12-23T00:27:40.302Z,17.70
2022-12-23T00:28:40.319Z,18.30
2022-12-23T00:29:40.284Z,17.50
2022-12-23T00:30:40.280Z,17.70
2022-12-23T00:31:40.325Z,17.50
2022-12-23T00:32:40.252Z,18.10
2022-12-23T00:33:40.263Z,17.50
2022-12-23T00:34:40.235Z,17.90
2022-12-23T00:35:40.245Z,17.90
2022-12-23T00:36:40.270Z,17.30
2022-12-23T00:37:40.193Z,18.20
2022-12-23T00:38:40.194Z,17.90
2022-12-23T00:39:40.201Z,18.00
2022-12-23T00:40:40.161Z,19.00
2022-12-23T00:41:40.175Z,18.30
2022-12-23T00:42:40.143Z,17.50
2022-12-23T00:43:40.129Z,18.90
2022-12-23T00:44:40.118Z,18.40
2022-12-23T00:45:40.156Z,18.20
2022-12-23T00:46:40.099Z,18.20
2022-12-23T00:47:40.086Z,18.40
2022-12-23T00:48:40.191Z,18.60
2022-12-23T00:49:40.078Z,18.50
2022-12-23T00:50:40.078Z,18.50
2022-12-23T00:51:40.086Z,19.20
2022-12-23T00:52:40.066Z,18.60
2022-12-23T00:53:40.052Z,19.00
2022-12-23T00:54:40.025Z,19.00
2022-12-23T00:55:39.996Z,17.70
2022-12-23T00:56:40.023Z,18.70
2022-12-23T00:57:39.975Z,18.20
2022-12-23T00:58:39.993Z,20.00
2022-12-23T00:59:39.968Z,18.50
2022-12-23T01:00:39.936Z,20.40
2022-12-23T01:01:40.098Z,19.30
2022-12-23T01:02:40.189Z,19.40
2022-12-23T01:03:39.987Z,18.60
2022-12-23T01:04:39.895Z,20.00
2022-12-23T01:05:39.890Z,20.30
2022-12-23T01:06:39.889Z,20.00
2022-12-23T01:07:39.862Z,20.00
2022-12-23T01:08:39.847Z,20.70
2022-12-23T01:09:39.841Z,20.60
2022-12-23T01:10:39.837Z,20.20
2022-12-23T01:11:39.836Z,19.90
2022-12-23T01:12:40.270Z,20.70
2022-12-23T01:13:39.799Z,20.90
2022-12-23T01:14:39.793Z,19.90
2022-12-23T01:15:39.774Z,19.90
2022-12-23T01:16:39.866Z,20.60
2022-12-23T01:17:39.752Z,20.80
2022-12-23T01:18:39.758Z,20.10
2022-12-23T01:19:39.743Z,20.50
2022-12-23T01:20:39.733Z,21.00
2022-12-23T01:21:39.705Z,20.20
2022-12-23T01:22:39.691Z,20.20
2022-12-23T01:23:39.716Z,21.20
2022-12-23T01:24:40.350Z,20.00
2022-12-23T01:25:39.666Z,20.10
2022-12-23T01:26:39.652Z,20.90
2022-12-23T01:27:39.644Z,20.90
2022-12-23T01:28:39.657Z,21.30
2022-12-23T01:29:39.625Z,21.30
2022-12-23T01:30:39.616Z,20.70
2022-12-23T01:31:39.676Z,21.50
2022-12-23T01:32:39.584Z,21.50
2022-12-23T01:33:39.597Z,20.80
2022-12-23T01:34:39.558Z,21.50
2022-12-23T01:35:39.592Z,22.00
2022-12-23T01:36:39.542Z,21.20
2022-12-23T01:37:39.531Z,21.20
2022-12-23T01:38:39.559Z,23.00
2022-12-23T01:39:39.512Z,20.40
2022-12-23T01:40:39.533Z,20.90
2022-12-23T01:41:39.498Z,21.80
2022-12-23T01:42:39.519Z,21.10
2022-12-23T01:43:39.488Z,21.70
2022-12-23T01:44:39.453Z,20.40
2022-12-23T01:45:39.481Z,19.70
2022-12-23T01:46:39.455Z,19.90
2022-12-23T01:47:39.412Z,20.20
2022-12-23T01:48:39.433Z,20.30
2022-12-23T01:49:39.397Z,19.30
2022-12-23T01:50:39.384Z,19.80
2022-12-23T01:51:39.370Z,19.60
2022-12-23T01:52:39.364Z,20.20
2022-12-23T01:53:39.387Z,19.40
2022-12-23T01:54:39.352Z,19.10
2022-12-23T01:55:39.331Z,19.10
2022-12-23T01:56:39.322Z,18.10
2022-12-23T01:57:39.305Z,18.00
2022-12-23T01:58:39.325Z,18.80
2022-12-23T01:59:39.291Z,18.60
2022-12-23T02:00:39.307Z,18.20
2022-12-23T02:01:39.379Z,17.50
2022-12-23T02:02:39.337Z,16.50
2022-12-23T02:03:39.358Z,17.80
2022-12-23T02:04:39.233Z,16.40
2022-12-23T02:05:39.221Z,17.00
2022-12-23T02:06:39.210Z,16.20
2022-12-23T02:07:39.198Z,15.80
2022-12-23T02:08:39.205Z,16.20
2022-12-23T02:09:39.185Z,16.00
2022-12-23T02:10:39.160Z,16.00
2022-12-23T02:11:39.173Z,16.10
2022-12-23T02:12:39.154Z,15.40
2022-12-23T02:13:39.166Z,15.30
2022-12-23T02:14:39.127Z,16.10
2022-12-23T02:15:39.113Z,15.30
2022-12-23T02:16:39.211Z,16.10
2022-12-23T02:17:39.088Z,15.60
2022-12-23T02:18:39.171Z,16.20
2022-12-23T02:19:39.075Z,16.10
2022-12-23T02:20:39.051Z,16.60
2022-12-23T02:21:39.058Z,16.60
2022-12-23T02:22:39.027Z,16.10
2022-12-23T02:23:39.065Z,16.00
2022-12-23T02:24:39.004Z,16.10
2022-12-23T02:25:39.003Z,16.30
2022-12-23T02:26:38.986Z,16.20
2022-12-23T02:27:38.973Z,16.40
2022-12-23T02:28:38.982Z,16.40
2022-12-23T02:29:38.955Z,15.70
2022-12-23T02:30:39.014Z,15.70
2022-12-23T02:31:38.930Z,16.00
2022-12-23T02:32:38.919Z,16.40
2022-12-23T02:33:38.935Z,16.60
2022-12-23T02:34:38.896Z,16.50
2022-12-23T02:35:38.886Z,16.30
2022-12-23T02:36:38.870Z,15.70
2022-12-23T02:37:38.863Z,15.80
2022-12-23T02:38:38.873Z,16.30
2022-12-23T02:39:38.843Z,15.30
2022-12-23T02:40:38.836Z,15.50
2022-12-23T02:41:38.823Z,15.80
2022-12-23T02:42:38.807Z,15.60
2022-12-23T02:43:38.823Z,14.90
2022-12-23T02:44:38.791Z,15.50
2022-12-23T02:45:38.772Z,14.80
2022-12-23T02:46:38.855Z,15.10
2022-12-23T02:47:38.751Z,15.20
2022-12-23T02:48:38.780Z,14.60
2022-12-23T02:49:38.728Z,14.70
2022-12-23T02:50:38.717Z,14.30
2022-12-23T02:51:38.707Z,14.10
2022-12-23T02:52:38.703Z,14.90
2022-12-23T02:53:38.710Z,14.80
2022-12-23T02:54:38.678Z,15.20
2022-12-23T02:55:38.660Z,14.60
2022-12-23T02:56:38.664Z,14.40
2022-12-23T02:57:38.652Z,14.30
2022-12-23T02:58:38.653Z,14.20
2022-12-23T02:59:38.618Z,13.90
2022-12-23T03:00:38.624Z,13.30
2022-12-23T03:01:38.738Z,13.40
2022-12-23T03:02:38.896Z,13.30
2022-12-23T03:03:38.680Z,13.40
2022-12-23T03:04:38.572Z,13.00
2022-12-23T03:05:38.548Z,13.00
2022-12-23T03:06:38.539Z,12.90
2022-12-23T03:07:38.531Z,12.50
2022-12-23T03:08:38.543Z,12.10
2022-12-23T03:09:38.503Z,12.60
2022-12-23T03:10:38.504Z,12.00
2022-12-23T03:11:38.486Z,12.40
2022-12-23T03:12:38.482Z,11.80
2022-12-23T03:13:38.490Z,12.40
2022-12-23T03:14:38.456Z,13.10
2022-12-23T03:15:38.488Z,12.80
2022-12-23T03:16:38.433Z,12.40
2022-12-23T03:17:38.418Z,12.80
2022-12-23T03:18:38.436Z,12.80
2022-12-23T03:19:38.397Z,13.30
2022-12-23T03:20:38.402Z,14.10
2022-12-23T03:21:38.371Z,14.70
2022-12-23T03:22:38.365Z,14.60
2022-12-23T03:23:38.385Z,14.80
2022-12-23T03:24:38.342Z,15.10
2022-12-23T03:25:38.332Z,14.80
2022-12-23T03:26:38.322Z,15.50
2022-12-23T03:27:38.305Z,16.50
2022-12-23T03:28:38.321Z,16.30
2022-12-23T03:29:38.286Z,16.30
2022-12-23T03:30:38.376Z,16.60
2022-12-23T03:31:38.383Z,16.90
2022-12-23T03:32:38.254Z,17.10
2022-12-23T03:33:38.275Z,17.80
2022-12-23T03:34:38.272Z,16.80
2022-12-23T03:35:38.219Z,18.00
2022-12-23T03:36:38.219Z,18.70
2022-12-23T03:37:38.195Z,18.50
2022-12-23T03:38:38.214Z,18.70
2022-12-23T03:39:38.169Z,18.30
2022-12-23T03:40:38.176Z,19.30
2022-12-23T03:41:38.154Z,19.10
2022-12-23T03:42:38.166Z,19.70
2022-12-23T03:43:38.148Z,20.20
2022-12-23T03:44:38.118Z,19.70
2022-12-23T03:45:40.315Z,20.00
2022-12-23T03:46:38.175Z,20.80
2022-12-23T03:47:38.083Z,20.30
2022-12-23T03:48:38.107Z,20.90
2022-12-23T03:49:38.059Z,21.00
2022-12-23T03:50:38.053Z,20.80
2022-12-23T03:51:38.038Z,21.50
2022-12-23T03:52:38.027Z,21.30
2022-12-23T03:53:38.034Z,21.60
2022-12-23T03:54:38.008Z,21.90
2022-12-23T03:55:37.997Z,22.30
2022-12-23T03:56:37.988Z,22.10
2022-12-23T03:57:37.978Z,22.20
2022-12-23T03:58:37.989Z,21.60
2022-12-23T03:59:37.959Z,21.10
2022-12-23T04:00:37.960Z,22.60
2022-12-23T04:01:38.057Z,21.80
2022-12-23T04:02:38.045Z,22.10
2022-12-23T04:03:38.023Z,22.00
2022-12-23T04:04:37.898Z,20.80
2022-12-23T04:05:37.903Z,21.30
2022-12-23T04:06:37.883Z,21.90
2022-12-23T04:07:37.862Z,21.60
2022-12-23T04:08:37.895Z,21.70
2022-12-23T04:09:37.852Z,21.50
2022-12-23T04:10:37.839Z,20.40
2022-12-23T04:11:37.856Z,20.90
2022-12-23T04:12:37.827Z,20.10
2022-12-23T04:13:37.835Z,20.70
2022-12-23T04:14:37.792Z,20.20
2022-12-23T04:15:37.810Z,21.40
2022-12-23T04:16:37.803Z,20.30
2022-12-23T04:17:37.748Z,20.50
2022-12-23T04:18:37.764Z,19.80
2022-12-23T04:19:37.734Z,19.10
2022-12-23T04:20:37.720Z,19.60
2022-12-23T04:21:37.705Z,19.70
2022-12-23T04:22:37.707Z,18.40
2022-12-23T04:23:37.706Z,18.80
2022-12-23T04:24:37.676Z,17.70
2022-12-23T04:25:37.661Z,17.70
2022-12-23T04:26:37.661Z,18.00
2022-12-23T04:27:37.639Z,17.20
2022-12-23T04:28:37.669Z,16.30
2022-12-23T04:29:37.618Z,16.70
2022-12-23T04:30:37.610Z,16.70
2022-12-23T04:31:37.725Z,17.10
2022-12-23T04:32:37.600Z,17.30
2022-12-23T04:33:37.618Z,17.20
2022-12-23T04:34:37.565Z,18.40
2022-12-23T04:35:37.557Z,17.90
2022-12-23T04:36:37.556Z,18.00
2022-12-23T04:37:37.525Z,18.10
2022-12-23T04:38:37.543Z,18.80
2022-12-23T04:39:37.540Z,18.80
2022-12-23T04:40:37.501Z,19.20
2022-12-23T04:41:37.483Z,19.70
2022-12-23T04:42:37.482Z,19.40
2022-12-23T04:43:37.516Z,19.80
2022-12-23T04:44:37.458Z,20.60
2022-12-23T04:45:37.444Z,20.00
2022-12-23T04:46:37.493Z,19.90
2022-12-23T04:47:37.421Z,20.20
2022-12-23T04:48:37.427Z,19.80
2022-12-23T04:49:37.435Z,20.90
2022-12-23T04:50:37.386Z,20.50
2022-12-23T04:51:37.381Z,20.30
2022-12-23T04:52:37.362Z,20.00
2022-12-23T04:53:37.379Z,19.60
2022-12-23T04:54:43.901Z,21.40
2022-12-23T04:55:37.339Z,21.20
2022-12-23T04:56:37.321Z,20.30
2022-12-23T04:57:37.310Z,20.70
2022-12-23T04:58:37.321Z,20.90
2022-12-23T04:59:37.288Z,20.40
2022-12-23T05:00:39.830Z,20.90
2022-12-23T05:01:37.436Z,20.40
2022-12-23T05:02:37.421Z,20.70
2022-12-23T05:03:37.313Z,20.90
2022-12-23T05:04:37.288Z,20.90
2022-12-23T05:05:37.234Z,21.50
2022-12-23T05:06:37.214Z,21.30
2022-12-23T05:07:37.219Z,20.40
2022-12-23T05:08:37.216Z,20.70
2022-12-23T05:09:37.186Z,21.30
2022-12-23T05:10:37.160Z,20.80
2022-12-23T05:11:42.107Z,20.50
2022-12-23T05:12:37.153Z,20.30
2022-12-23T05:13:37.166Z,21.10
2022-12-23T05:14:37.116Z,21.90
2022-12-23T05:15:37.108Z,20.90
2022-12-23T05:16:37.213Z,21.00
2022-12-23T05:17:37.090Z,20.00
2022-12-23T05:18:37.099Z,20.90
2022-12-23T05:19:37.064Z,20.30
2022-12-23T05:20:37.094Z,19.50
2022-12-23T05:21:37.055Z,19.80
2022-12-23T05:22:37.047Z,20.20
2022-12-23T05:23:37.043Z,19.90
2022-12-23T05:24:37.023Z,19.90
2022-12-23T05:25:37.005Z,20.60
2022-12-23T05:26:36.998Z,20.50
2022-12-23T05:27:36.983Z,20.10
2022-12-23T05:28:36.985Z,21.20
2022-12-23T05:29:36.954Z,20.00
2022-12-23T05:30:36.934Z,19.70
2022-12-23T05:31:36.986Z,20.20
2022-12-23T05:32:36.953Z,19.30
2022-12-23T05:33:37.040Z,20.00
2022-12-23T05:34:36.898Z,20.10
2022-12-23T05:35:36.886Z,19.80
2022-12-23T05:36:36.888Z,19.50
2022-12-23T05:37:36.872Z,19.90
2022-12-23T05:38:36.872Z,19.80
2022-12-23T05:39:36.865Z,20.20
2022-12-23T05:40:36.833Z,19.90
2022-12-23T05:41:36.846Z,19.10
2022-12-23T05:42:36.809Z,19.20
2022-12-23T05:43:36.819Z,19.90
2022-12-23T05:44:36.795Z,19.80
2022-12-23T05:45:36.796Z,20.30
2022-12-23T05:46:36.869Z,20.10
2022-12-23T05:47:36.749Z,20.10
2022-12-23T05:48:36.766Z,19.40
2022-12-23T05:49:36.729Z,20.90
2022-12-23T05:50:36.718Z,19.80
2022-12-23T05:51:36.702Z,21.10
2022-12-23T05:52:36.702Z,19.60
2022-12-23T05:53:36.705Z,19.50
2022-12-23T05:54:36.686Z,20.50
2022-12-23T05:55:36.674Z,19.10
2022-12-23T05:56:36.654Z,21.40
2022-12-23T05:57:36.633Z,20.50
2022-12-23T05:58:36.656Z,20.80
2022-12-23T05:59:36.625Z,21.20
2022-12-23T06:00:36.620Z,20.70
2022-12-23T06:01:36.639Z,21.50
2022-12-23T06:02:36.770Z,21.00
2022-12-23T06:03:36.757Z,20.20
2022-12-23T06:04:36.565Z,21.00
2022-12-23T06:05:36.546Z,20.90
2022-12-23T06:06:36.559Z,21.70
2022-12-23T06:07:36.525Z,21.80
2022-12-23T06:08:36.586Z,21.50
2022-12-23T06:09:36.503Z,21.50
2022-12-23T06:10:36.495Z,21.00
2022-12-23T06:11:36.480Z,21.20
2022-12-23T06:12:36.476Z,21.20
2022-12-23T06:13:36.482Z,22.60
2022-12-23T06:14:36.451Z,21.80
2022-12-23T06:15:36.461Z,21.00
2022-12-23T06:16:36.512Z,21.70
2022-12-23T06:17:36.439Z,22.30
2022-12-23T06:18:36.452Z,21.50
2022-12-23T06:19:36.393Z,22.20
2022-12-23T06:20:36.393Z,21.90
2022-12-23T06:21:36.372Z,22.10
2022-12-23T06:22:36.375Z,21.80
2022-12-23T06:23:36.387Z,22.00
2022-12-23T06:24:36.350Z,21.80
2022-12-23T06:25:36.331Z,22.90
2022-12-23T06:26:36.320Z,21.90
2022-12-23T06:27:36.307Z,22.40
2022-12-23T06:28:36.321Z,23.10
2022-12-23T06:29:36.281Z,22.70
2022-12-23T06:30:36.272Z,23.90
2022-12-23T06:31:36.307Z,22.80
2022-12-23T06:32:38.876Z,23.30
2022-12-23T06:33:36.268Z,23.60
2022-12-23T06:34:36.232Z,22.70
2022-12-23T06:35:36.222Z,22.10
2022-12-23T06:36:36.215Z,23.30
2022-12-23T06:37:36.207Z,22.70
2022-12-23T06:38:36.213Z,22.70
2022-12-23T06:39:36.191Z,23.60
2022-12-23T06:40:36.168Z,21.10
2022-12-23T06:41:36.152Z,21.30
2022-12-23T06:42:36.169Z,19.80
2022-12-23T06:43:36.158Z,20.80
2022-12-23T06:44:36.115Z,20.10
2022-12-23T06:45:36.203Z,20.40
2022-12-23T06:46:36.097Z,21.00
2022-12-23T06:47:36.089Z,19.80
2022-12-23T06:48:36.099Z,19.40
2022-12-23T06:49:36.071Z,19.50
2022-12-23T06:50:36.052Z,19.30
2022-12-23T06:51:36.066Z,18.90
2022-12-23T06:52:36.039Z,18.40
2022-12-23T06:53:36.045Z,18.80
2022-12-23T06:54:36.003Z,19.10
2022-12-23T06:55:36.050Z,19.40
2022-12-23T06:56:35.986Z,19.60
2022-12-23T06:57:35.988Z,19.20
2022-12-23T06:58:35.993Z,18.90
2022-12-23T06:59:35.957Z,19.00
2022-12-23T07:00:35.941Z,19.40
2022-12-23T07:01:36.038Z,18.90
2022-12-23T07:02:36.068Z,19.20
2022-12-23T07:03:35.955Z,18.50
2022-12-23T07:04:35.898Z,18.90
2022-12-23T07:05:37.704Z,18.20
2022-12-23T07:06:35.880Z,19.00
2022-12-23T07:07:35.862Z,19.90
2022-12-23T07:08:35.900Z,18.80
2022-12-23T07:09:35.842Z,18.50
2022-12-23T07:10:35.829Z,18.90
2022-12-23T07:11:35.823Z,18.30
2022-12-23T07:12:35.931Z,19.20
2022-12-23T07:13:35.820Z,19.50
2022-12-23T07:14:35.789Z,18.30
2022-12-23T07:15:35.775Z,19.00
2022-12-23T07:16:35.829Z,20.30
2022-12-23T07:17:35.756Z,19.40
2022-12-23T07:18:35.768Z,19.90
2022-12-23T07:19:35.735Z,19.50
2022-12-23T07:20:35.726Z,19.40
2022-12-23T07:21:35.749Z,19.80
2022-12-23T07:22:35.726Z,20.20
2022-12-23T07:23:35.714Z,19.70
2022-12-23T07:24:35.674Z,20.60
2022-12-23T07:25:35.690Z,19.20
2022-12-23T07:26:35.699Z,20.80
2022-12-23T07:27:35.641Z,20.00
2022-12-23T07:28:35.664Z,20.70
2022-12-23T07:29:35.625Z,20.50
2022-12-23T07:30:35.685Z,20.90
2022-12-23T07:31:40.606Z,21.40
2022-12-23T07:32:35.592Z,21.60
2022-12-23T07:33:35.604Z,21.60
2022-12-23T07:34:35.559Z,21.80
2022-12-23T07:35:35.555Z,22.40
2022-12-23T07:36:35.556Z,22.00
2022-12-23T07:37:35.561Z,22.20
2022-12-23T07:38:35.541Z,22.70
2022-12-23T07:39:35.539Z,22.50
2022-12-23T07:40:35.496Z,22.50
2022-12-23T07:41:35.497Z,22.60
2022-12-23T07:42:50.934Z,23.80
2022-12-23T07:43:35.504Z,23.00
2022-12-23T07:44:35.453Z,23.00
2022-12-23T07:45:35.488Z,24.00
2022-12-23T07:46:35.523Z,22.80
2022-12-23T07:47:35.423Z,25.00
2022-12-23T07:48:35.437Z,23.60
2022-12-23T07:49:35.401Z,22.90
2022-12-23T07:50:35.392Z,24.50
2022-12-23T07:51:35.371Z,24.80
2022-12-23T07:52:35.370Z,25.40
2022-12-23T07:53:35.382Z,25.20
2022-12-23T07:54:35.346Z,26.00
2022-12-23T07:55:35.336Z,25.70
2022-12-23T07:56:35.325Z,26.70
2022-12-23T07:57:35.390Z,25.90
2022-12-23T07:58:35.323Z,26.00
2022-12-23T07:59:35.296Z,26.80
2022-12-23T08:00:35.281Z,25.80
2022-12-23T08:01:35.389Z,27.10
2022-12-23T08:02:35.428Z,27.20
2022-12-23T08:03:35.415Z,27.90
2022-12-23T08:04:38.353Z,26.90
2022-12-23T08:05:35.232Z,27.20
2022-12-23T08:06:35.227Z,27.60
2022-12-23T08:07:35.203Z,28.00
2022-12-23T08:08:35.210Z,27.20
2022-12-23T08:09:35.178Z,26.40
2022-12-23T08:10:35.169Z,27.10
2022-12-23T08:11:35.155Z,29.00
2022-12-23T08:12:35.154Z,28.70
2022-12-23T08:13:35.163Z,29.30
2022-12-23T08:14:35.121Z,28.00
2022-12-23T08:15:35.113Z,28.40
2022-12-23T08:16:41.257Z,28.60
2022-12-23T08:17:35.096Z,28.00
2022-12-23T08:18:35.103Z,30.00
2022-12-23T08:19:35.071Z,29.40
2022-12-23T08:20:35.054Z,30.10
2022-12-23T08:21:35.043Z,29.00
2022-12-23T08:22:35.034Z,28.60
2022-12-23T08:23:35.050Z,29.10
2022-12-23T08:24:35.005Z,29.20
2022-12-23T08:25:34.999Z,28.60
2022-12-23T08:26:34.984Z,29.20
2022-12-23T08:27:34.988Z,29.10
2022-12-23T08:28:34.996Z,29.50
2022-12-23T08:29:36.649Z,29.40
2022-12-23T08:30:35.019Z,30.00
2022-12-23T08:31:34.972Z,30.50
2022-12-23T08:32:34.919Z,30.20
2022-12-23T08:33:34.953Z,31.30
2022-12-23T08:34:34.896Z,30.80
2022-12-23T08:35:34.889Z,31.00
2022-12-23T08:36:34.888Z,30.90
2022-12-23T08:37:34.862Z,31.30
2022-12-23T08:38:34.887Z,31.70
2022-12-23T08:39:34.848Z,31.30
2022-12-23T08:40:34.825Z,31.70
2022-12-23T08:41:34.822Z,30.00
2022-12-23T08:42:34.806Z,30.10
2022-12-23T08:43:36.174Z,31.80
2022-12-23T08:44:34.795Z,31.20
2022-12-23T08:45:34.772Z,31.70
2022-12-23T08:46:34.818Z,30.40
2022-12-23T08:47:34.755Z,30.80
2022-12-23T08:48:34.765Z,29.70
2022-12-23T08:49:34.728Z,31.40
2022-12-23T08:50:34.723Z,31.20
2022-12-23T08:51:34.705Z,31.20
2022-12-23T08:52:34.700Z,31.90
2022-12-23T08:53:34.769Z,31.00
2022-12-23T08:54:34.679Z,32.50
2022-12-23T08:55:34.669Z,31.40
2022-12-23T08:56:34.658Z,32.10
2022-12-23T08:57:34.640Z,31.80
2022-12-23T08:58:34.748Z,32.40
2022-12-23T08:59:34.622Z,31.90
2022-12-23T09:00:34.612Z,31.80
2022-12-23T09:01:34.832Z,32.70
2022-12-23T09:02:34.786Z,31.50
2022-12-23T09:03:34.860Z,31.70
2022-12-23T09:04:34.570Z,31.10
2022-12-23T09:05:34.564Z,32.00
2022-12-23T09:06:34.555Z,32.50
2022-12-23T09:07:34.532Z,32.90
2022-12-23T09:08:34.544Z,33.20
2022-12-23T09:09:34.506Z,32.40
2022-12-23T09:10:34.499Z,30.00
2022-12-23T09:11:34.501Z,32.90
2022-12-23T09:12:34.484Z,32.20
2022-12-23T09:13:35.886Z,33.60
2022-12-23T09:14:34.458Z,32.80
2022-12-23T09:15:34.465Z,30.80
2022-12-23T09:16:34.510Z,32.60
2022-12-23T09:17:34.417Z,32.40
2022-12-23T09:18:34.543Z,31.80
2022-12-23T09:19:34.403Z,31.00
2022-12-23T09:20:34.394Z,32.20
2022-12-23T09:21:34.377Z,30.60
2022-12-23T09:22:34.379Z,31.10
2022-12-23T09:23:34.390Z,30.70
2022-12-23T09:24:34.349Z,31.40
2022-12-23T09:25:34.333Z,31.30
2022-12-23T09:26:34.335Z,31.40
2022-12-23T09:27:34.308Z,31.80
2022-12-23T09:28:34.328Z,31.20
2022-12-23T09:29:34.295Z,30.50
2022-12-23T09:30:34.290Z,30.40
2022-12-23T09:31:37.212Z,31.20
2022-12-23T09:32:34.258Z,31.40
2022-12-23T09:33:34.264Z,31.20
2022-12-23T09:34:34.242Z,31.60
2022-12-23T09:35:34.219Z,32.90
2022-12-23T09:36:34.220Z,31.50
2022-12-23T09:37:34.198Z,32.70
2022-12-23T09:38:34.211Z,32.30
2022-12-23T09:39:34.175Z,32.20
2022-12-23T09:40:34.167Z,33.20
2022-12-23T09:41:34.151Z,33.80
2022-12-23T09:42:34.173Z,33.00
2022-12-23T09:43:34.165Z,34.50
2022-12-23T09:44:34.131Z,32.50
2022-12-23T09:45:40.129Z,31.80
2022-12-23T09:46:34.214Z,35.60
2022-12-23T09:47:34.096Z,30.60
2022-12-23T09:48:34.112Z,33.10
2022-12-23T09:49:34.075Z,35.70
2022-12-23T09:50:34.069Z,38.70
2022-12-23T09:51:34.048Z,35.60
2022-12-23T09:52:34.046Z,37.90
2022-12-23T09:53:34.099Z,33.40
2022-12-23T09:54:34.014Z,33.70
2022-12-23T09:55:34.042Z,32.50
2022-12-23T09:56:34.004Z,32.60
2022-12-23T09:57:33.993Z,32.00
2022-12-23T09:58:33.990Z,31.00
2022-12-23T09:59:33.977Z,31.80
2022-12-23T10:00:33.957Z,31.70
2022-12-23T10:01:34.143Z,31.70
2022-12-23T10:02:34.095Z,32.60
2022-12-23T10:03:34.316Z,32.90
2022-12-23T10:04:33.978Z,31.20
2022-12-23T10:05:33.907Z,32.50
2022-12-23T10:06:33.883Z,31.70
2022-12-23T10:07:34.286Z,30.60
2022-12-23T10:08:33.894Z,31.40
2022-12-23T10:09:33.869Z,31.30
2022-12-23T10:10:33.837Z,31.30
2022-12-23T10:11:33.829Z,31.60
2022-12-23T10:12:39.529Z,32.30
2022-12-23T10:13:34.298Z,33.50
2022-12-23T10:14:33.804Z,31.50
2022-12-23T10:15:33.790Z,33.30
2022-12-23T10:16:33.914Z,33.10
2022-12-23T10:17:33.768Z,31.90
2022-12-23T10:18:33.781Z,30.90
2022-12-23T10:19:33.742Z,31.30
2022-12-23T10:20:33.733Z,31.50
2022-12-23T10:21:33.725Z,32.30
2022-12-23T10:22:33.705Z,31.20
2022-12-23T10:23:33.729Z,31.30
2022-12-23T10:24:33.910Z,30.90
2022-12-23T10:25:33.708Z,32.20
2022-12-23T10:26:33.663Z,30.80
2022-12-23T10:27:33.663Z,31.30
2022-12-23T10:28:33.667Z,29.60
2022-12-23T10:29:33.649Z,30.50
2022-12-23T10:30:57.492Z,31.10
2022-12-23T10:31:41.462Z,32.00
2022-12-23T10:32:33.714Z,31.00
2022-12-23T10:33:33.631Z,30.30
2022-12-23T10:34:38.303Z,31.60
2022-12-23T10:35:33.587Z,30.70
2022-12-23T10:36:33.578Z,31.80
2022-12-23T10:37:33.555Z,32.20
2022-12-23T10:38:33.578Z,34.60
2022-12-23T10:39:33.540Z,33.10
2022-12-23T10:40:33.507Z,33.00
2022-12-23T10:41:33.509Z,31.70
2022-12-23T10:42:33.497Z,44.30
2022-12-23T10:43:33.500Z,38.00
2022-12-23T10:44:33.470Z,34.80
2022-12-23T10:45:33.520Z,33.10
2022-12-23T10:46:33.453Z,34.10
2022-12-23T10:47:33.428Z,33.30
2022-12-23T10:48:33.454Z,32.60
2022-12-23T10:49:33.414Z,31.70
2022-12-23T10:50:33.408Z,32.10
2022-12-23T10:51:33.399Z,31.60
2022-12-23T10:52:33.375Z,31.90
2022-12-23T10:53:33.395Z,32.20
2022-12-23T10:54:33.359Z,32.40
2022-12-23T10:55:34.243Z,33.50
2022-12-23T10:56:33.326Z,32.10
2022-12-23T10:57:33.325Z,32.10
2022-12-23T10:58:33.353Z,30.40
2022-12-23T10:59:33.319Z,33.40
2022-12-23T11:00:33.326Z,32.60
2022-12-23T11:01:33.397Z,31.80
2022-12-23T11:02:33.562Z,32.60
2022-12-23T11:03:33.557Z,31.60
2022-12-23T11:04:33.238Z,30.70
2022-12-23T11:05:33.241Z,30.80
2022-12-23T11:06:37.220Z,32.40
2022-12-23T11:07:48.627Z,30.70
2022-12-23T11:08:33.218Z,32.20
2022-12-23T11:09:33.178Z,34.80
2022-12-23T11:10:33.187Z,33.60
2022-12-23T11:11:33.173Z,32.20
2022-12-23T11:12:37.275Z,34.30
2022-12-23T11:13:33.171Z,32.30
2022-12-23T11:14:33.135Z,35.30
2022-12-23T11:15:33.193Z,36.80
2022-12-23T11:16:33.143Z,36.60
2022-12-23T11:17:33.082Z,37.60
2022-12-23T11:18:37.435Z,35.10
2022-12-23T11:19:33.069Z,35.80
2022-12-23T11:20:33.071Z,34.00
2022-12-23T11:21:33.053Z,33.00
2022-12-23T11:22:33.048Z,33.70
2022-12-23T11:23:33.053Z,31.60
2022-12-23T11:24:38.016Z,33.10
2022-12-23T11:25:33.022Z,33.40
2022-12-23T11:26:32.992Z,32.30
2022-12-23T11:27:32.975Z,33.70
2022-12-23T11:28:32.988Z,33.20
2022-12-23T11:29:32.961Z,32.50
2022-12-23T11:30:32.964Z,32.70
2022-12-23T11:31:32.978Z,32.90
2022-12-23T11:32:32.942Z,30.80
2022-12-23T11:33:32.941Z,33.10
2022-12-23T11:34:32.898Z,32.80
2022-12-23T11:35:32.914Z,33.30
2022-12-23T11:36:32.894Z,33.70
2022-12-23T11:37:32.859Z,32.10
2022-12-23T11:38:32.878Z,33.20
2022-12-23T11:39:32.862Z,31.80
2022-12-23T11:40:32.829Z,33.60
2022-12-23T11:41:32.818Z,32.30
2022-12-23T11:42:32.809Z,34.80
2022-12-23T11:43:32.842Z,34.00
2022-12-23T11:44:32.783Z,33.80
2022-12-23T11:45:32.788Z,34.70
2022-12-23T11:46:32.864Z,35.00
2022-12-23T11:47:32.753Z,31.20
2022-12-23T11:48:32.770Z,32.90
2022-12-23T11:49:32.744Z,33.70
2022-12-23T11:50:32.722Z,33.10
2022-12-23T11:51:32.709Z,31.40
2022-12-23T11:52:32.690Z,34.10
2022-12-23T11:53:32.704Z,33.90
2022-12-23T11:54:32.677Z,33.30
2022-12-23T11:55:32.669Z,34.40
2022-12-23T11:56:32.690Z,33.40
2022-12-23T11:57:32.650Z,33.60
2022-12-23T11:58:32.649Z,33.40
2022-12-23T11:59:32.619Z,33.90
2022-12-23T12:00:32.604Z,33.60
2022-12-23T12:01:32.597Z,33.60
2022-12-23T12:02:32.738Z,32.70
2022-12-23T12:03:32.622Z,31.90
2022-12-23T12:04:32.566Z,32.50
2022-12-23T12:05:32.548Z,34.50
2022-12-23T12:06:32.539Z,33.80
2022-12-23T12:07:32.523Z,32.70
2022-12-23T12:08:32.541Z,32.90
2022-12-23T12:09:32.519Z,34.70
2022-12-23T12:10:32.493Z,31.50
2022-12-23T12:11:32.475Z,31.60
2022-12-23T12:12:32.539Z,33.80
2022-12-23T12:13:32.479Z,32.10
2022-12-23T12:14:32.465Z,30.20
2022-12-23T12:15:32.443Z,30.00
2022-12-23T12:16:32.478Z,29.80
2022-12-23T12:17:32.416Z,32.50
2022-12-23T12:18:32.430Z,29.80
2022-12-23T12:19:32.394Z,29.90
2022-12-23T12:20:32.387Z,28.90
2022-12-23T12:21:32.370Z,29.90
2022-12-23T12:22:32.363Z,30.70
2022-12-23T12:23:32.371Z,31.70
2022-12-23T12:24:32.337Z,29.10
2022-12-23T12:25:37.786Z,28.90
2022-12-23T12:26:32.322Z,28.60
2022-12-23T12:27:32.308Z,27.70
2022-12-23T12:28:32.321Z,25.80
2022-12-23T12:29:32.273Z,26.00
2022-12-23T12:30:32.282Z,25.10
2022-12-23T12:31:32.263Z,23.70
2022-12-23T12:32:32.246Z,23.00
2022-12-23T12:33:32.253Z,24.70
2022-12-23T12:34:32.227Z,23.00
2022-12-23T12:35:32.207Z,24.50
2022-12-23T12:36:32.279Z,25.20
2022-12-23T12:37:32.192Z,24.70
2022-12-23T12:38:32.212Z,24.20
2022-12-23T12:39:32.165Z,24.20
2022-12-23T12:40:32.160Z,21.50
2022-12-23T12:41:32.139Z,22.40
2022-12-23T12:42:32.143Z,22.80
2022-12-23T12:43:32.167Z,23.00
2022-12-23T12:44:32.114Z,22.00
2022-12-23T12:45:32.126Z,23.20
2022-12-23T12:46:32.114Z,21.90
2022-12-23T12:48:32.100Z,22.30
2022-12-23T12:49:32.059Z,21.90
2022-12-23T12:50:32.049Z,21.40
2022-12-23T12:51:32.049Z,21.70
2022-12-23T12:52:32.024Z,23.50
2022-12-23T12:53:32.040Z,21.40